createdAt,value
2023-03-28T00:01:11.835Z,98428.00
2023-03-28T00:03:40.540Z,98426.44
2023-03-28T00:06:16.282Z,98428.34
2023-03-28T00:08:45.944Z,98426.75
2023-03-28T00:11:19.651Z,98430.13
2023-03-28T00:13:58.020Z,98435.28
2023-03-28T00:16:33.931Z,98444.06
2023-03-28T00:19:06.059Z,98449.13
2023-03-28T00:21:37.350Z,98448.38
2023-03-28T00:24:10.730Z,98446.06
2023-03-28T00:26:38.300Z,98448.50
2023-03-28T00:29:09.073Z,98448.81
2023-03-28T00:31:39.290Z,98448.41
2023-03-28T00:34:07.777Z,98452.19
2023-03-28T00:36:35.397Z,98451.97
2023-03-28T00:39:06.454Z,98452.19
2023-03-28T00:41:42.636Z,98457.16
2023-03-28T00:44:48.959Z,98458.31
2023-03-28T00:47:45.982Z,98454.72
2023-03-28T00:50:38.095Z,98460.09
2023-03-28T00:53:21.567Z,98455.47
2023-03-28T00:55:55.250Z,98464.00
2023-03-28T00:58:27.656Z,98456.44
2023-03-28T01:00:57.426Z,98459.69
2023-03-28T01:03:33.871Z,98459.25
2023-03-28T01:06:04.499Z,98463.38
2023-03-28T01:08:44.864Z,98467.19
2023-03-28T01:11:14.514Z,98463.47
2023-03-28T01:13:50.691Z,98468.75
2023-03-28T01:16:22.010Z,98469.41
2023-03-28T01:18:52.002Z,98469.59
2023-03-28T01:22:06.835Z,98466.44
2023-03-28T01:25:34.552Z,98465.59
2023-03-28T01:28:26.689Z,98469.72
2023-03-28T01:31:35.317Z,98473.41
2023-03-28T01:34:42.668Z,98482.81
2023-03-28T01:37:32.712Z,98477.84
2023-03-28T01:40:39.487Z,98486.78
2023-03-28T01:43:42.864Z,98481.09
2023-03-28T01:46:38.169Z,98485.31
2023-03-28T01:49:28.676Z,98485.63
2023-03-28T01:52:04.945Z,98488.69
2023-03-28T01:55:14.892Z,98490.91
2023-03-28T01:58:14.885Z,98489.75
2023-03-28T02:00:55.886Z,98489.03
2023-03-28T02:03:31.813Z,98489.84
2023-03-28T02:06:08.282Z,98489.56
2023-03-28T02:08:41.057Z,98491.22
2023-03-28T02:11:33.600Z,98493.44
2023-03-28T02:14:19.519Z,98487.97
2023-03-28T02:17:28.955Z,98494.09
2023-03-28T02:20:31.731Z,98483.44
2023-03-28T02:23:31.396Z,98487.00
2023-03-28T02:26:18.379Z,98494.72
2023-03-28T02:28:59.581Z,98491.16
2023-03-28T02:31:46.496Z,98489.34
2023-03-28T02:34:14.332Z,98487.56
2023-03-28T02:37:14.068Z,98483.63
2023-03-28T02:40:13.762Z,98486.28
2023-03-28T02:43:10.764Z,98486.91
2023-03-28T02:46:01.061Z,98480.81
2023-03-28T02:49:19.396Z,98486.28
2023-03-28T02:52:15.923Z,98483.63
2023-03-28T02:55:18.291Z,98487.53
2023-03-28T02:58:14.150Z,98487.44
2023-03-28T03:00:42.877Z,98484.91
2023-03-28T03:03:11.308Z,98478.88
2023-03-28T03:05:38.905Z,98488.31
2023-03-28T03:08:07.394Z,98486.69
2023-03-28T03:10:36.463Z,98484.06
2023-03-28T03:13:04.055Z,98485.97
2023-03-28T03:15:35.441Z,98489.66
2023-03-28T03:18:20.496Z,98483.31
2023-03-28T03:20:50.128Z,98482.59
2023-03-28T03:23:18.318Z,98490.81
2023-03-28T03:25:45.861Z,98488.09
2023-03-28T03:28:27.088Z,98481.00
2023-03-28T03:30:55.476Z,98480.28
2023-03-28T03:33:32.671Z,98486.38
2023-03-28T03:36:05.925Z,98482.91
2023-03-28T03:38:34.708Z,98483.09
2023-03-28T03:41:02.975Z,98479.81
2023-03-28T03:43:30.921Z,98488.47
2023-03-28T03:46:00.329Z,98485.84
2023-03-28T03:48:28.666Z,98491.97
2023-03-28T03:51:00.956Z,98488.38
2023-03-28T03:53:29.132Z,98487.44
2023-03-28T03:56:06.286Z,98477.19
2023-03-28T03:58:57.956Z,98480.97
2023-03-28T04:01:30.678Z,98480.97
2023-03-28T04:04:18.501Z,98477.50
2023-03-28T04:07:07.622Z,98475.81
2023-03-28T04:09:36.265Z,98476.13
2023-03-28T04:12:07.654Z,98479.69
2023-03-28T04:14:45.781Z,98484.03
2023-03-28T04:17:35.125Z,98482.56
2023-03-28T04:20:11.593Z,98484.22
2023-03-28T04:22:54.647Z,98487.09
2023-03-28T04:25:24.717Z,98485.38
2023-03-28T04:27:54.606Z,98494.25
2023-03-28T04:30:24.400Z,98499.53
2023-03-28T04:33:25.089Z,98507.34
2023-03-28T04:36:00.414Z,98510.91
2023-03-28T04:38:32.567Z,98513.66
2023-03-28T04:41:16.682Z,98511.00
2023-03-28T04:44:19.254Z,98512.81
2023-03-28T04:46:56.383Z,98512.06
2023-03-28T04:49:24.725Z,98511.31
2023-03-28T04:51:52.716Z,98512.16
2023-03-28T04:54:20.634Z,98514.69
2023-03-28T04:56:48.338Z,98522.63
2023-03-28T04:59:21.607Z,98515.44
2023-03-28T05:01:49.538Z,98527.06
2023-03-28T05:04:35.837Z,98521.78
2023-03-28T05:07:06.038Z,98520.81
2023-03-28T05:09:34.710Z,98520.63
2023-03-28T05:12:02.414Z,98531.06
2023-03-28T05:14:31.990Z,98523.91
2023-03-28T05:17:11.787Z,98533.50
2023-03-28T05:19:57.897Z,98534.34
2023-03-28T05:22:28.149Z,98534.22
2023-03-28T05:24:59.830Z,98535.38
2023-03-28T05:27:27.480Z,98548.56
2023-03-28T05:29:55.976Z,98548.56
2023-03-28T05:32:24.568Z,98551.13
2023-03-28T05:34:53.554Z,98552.91
2023-03-28T05:37:22.315Z,98555.44
2023-03-28T05:39:51.715Z,98557.31
2023-03-28T05:42:19.956Z,98554.69
2023-03-28T05:44:47.659Z,98564.22
2023-03-28T05:47:34.413Z,98567.69
2023-03-28T05:50:02.913Z,98571.38
2023-03-28T05:52:30.651Z,98566.72
2023-03-28T05:54:58.685Z,98568.09
2023-03-28T05:57:26.297Z,98574.25
2023-03-28T05:59:54.395Z,98585.22
2023-03-28T06:02:24.357Z,98575.44
2023-03-28T06:04:57.845Z,98581.25
2023-03-28T06:07:39.394Z,98584.63
2023-03-28T06:10:13.469Z,98597.41
2023-03-28T06:12:45.152Z,98595.41
2023-03-28T06:15:13.046Z,98590.78
2023-03-28T06:17:44.661Z,98590.56
2023-03-28T06:20:12.255Z,98595.56
2023-03-28T06:22:40.174Z,98597.88
2023-03-28T06:25:10.941Z,98594.91
2023-03-28T06:27:38.825Z,98599.06
2023-03-28T06:30:07.548Z,98597.78
2023-03-28T06:32:43.335Z,98600.97
2023-03-28T06:35:13.313Z,98600.88
2023-03-28T06:37:40.803Z,98601.59
2023-03-28T06:40:09.749Z,98614.59
2023-03-28T06:42:37.385Z,98619.66
2023-03-28T06:45:34.409Z,98615.88
2023-03-28T06:48:09.064Z,98615.66
2023-03-28T06:51:06.366Z,98619.78
2023-03-28T06:53:36.084Z,98620.63
2023-03-28T06:56:04.521Z,98615.13
2023-03-28T06:58:32.186Z,98615.97
2023-03-28T07:01:06.985Z,98617.47
2023-03-28T07:03:37.456Z,98614.63
2023-03-28T07:06:08.338Z,98612.81
2023-03-28T07:08:36.823Z,98617.91
2023-03-28T07:11:05.326Z,98622.84
2023-03-28T07:13:33.492Z,98619.03
2023-03-28T07:16:11.496Z,98615.22
2023-03-28T07:18:39.600Z,98626.34
2023-03-28T07:21:13.950Z,98630.44
2023-03-28T07:23:44.520Z,98624.00
2023-03-28T07:26:15.941Z,98615.88
2023-03-28T07:28:43.485Z,98626.44
2023-03-28T07:31:12.099Z,98630.13
2023-03-28T07:33:41.168Z,98630.66
2023-03-28T07:36:19.361Z,98637.63
2023-03-28T07:38:51.067Z,98646.31
2023-03-28T07:41:22.432Z,98641.22
2023-03-28T07:43:50.217Z,98641.22
2023-03-28T07:46:18.073Z,98647.38
2023-03-28T07:48:46.375Z,98660.25
2023-03-28T07:51:15.215Z,98656.53
2023-03-28T07:53:42.772Z,98655.19
2023-03-28T07:56:11.740Z,98659.53
2023-03-28T07:58:55.252Z,98664.50
2023-03-28T08:01:22.922Z,98660.69
2023-03-28T08:03:55.862Z,98665.97
2023-03-28T08:06:34.060Z,98669.16
2023-03-28T08:09:02.818Z,98664.59
2023-03-28T08:11:35.916Z,98674.94
2023-03-28T08:14:05.914Z,98672.44
2023-03-28T08:16:33.828Z,98667.56
2023-03-28T08:19:10.704Z,98666.28
2023-03-28T08:21:49.316Z,98669.03
2023-03-28T08:24:25.285Z,98662.69
2023-03-28T08:27:03.177Z,98669.00
2023-03-28T08:29:31.365Z,98668.78
2023-03-28T08:31:59.044Z,98673.22
2023-03-28T08:34:27.083Z,98672.91
2023-03-28T08:36:59.844Z,98665.25
2023-03-28T08:39:29.069Z,98674.84
2023-03-28T08:42:23.928Z,98672.91
2023-03-28T08:45:26.890Z,98666.47
2023-03-28T08:48:19.141Z,98667.38
2023-03-28T08:51:05.936Z,98668.41
2023-03-28T08:53:43.928Z,98668.84
2023-03-28T08:56:16.255Z,98667.28
2023-03-28T08:59:07.382Z,98678.38
2023-03-28T09:01:35.769Z,98666.38
2023-03-28T09:04:04.347Z,98670.09
2023-03-28T09:06:40.818Z,98670.09
2023-03-28T09:09:50.741Z,98664.06
2023-03-28T09:13:06.033Z,98676.66
2023-03-28T09:15:51.534Z,98674.50
2023-03-28T09:18:47.100Z,98671.13
2023-03-28T09:21:52.838Z,98670.56
2023-03-28T09:25:14.517Z,98669.50
2023-03-28T09:28:38.555Z,98676.50
2023-03-28T09:31:09.813Z,98669.63
2023-03-28T09:33:42.884Z,98672.06
2023-03-28T09:36:31.594Z,98676.16
2023-03-28T09:39:19.040Z,98671.91
2023-03-28T09:41:53.496Z,98673.63
2023-03-28T09:45:07.997Z,98664.78
2023-03-28T09:47:54.085Z,98664.31
2023-03-28T09:50:26.332Z,98663.50
2023-03-28T09:52:58.869Z,98665.03
2023-03-28T09:55:30.799Z,98663.34
2023-03-28T09:58:14.732Z,98650.34
2023-03-28T10:01:24.222Z,98651.75
2023-03-28T10:04:15.953Z,98652.00
2023-03-28T10:07:11.263Z,98641.31
2023-03-28T10:09:54.342Z,98637.72
2023-03-28T10:12:35.278Z,98635.31
2023-03-28T10:15:03.409Z,98638.38
2023-03-28T10:17:51.032Z,98630.22
2023-03-28T10:20:24.845Z,98631.03
2023-03-28T10:22:57.222Z,98631.66
2023-03-28T10:25:45.311Z,98630.69
2023-03-28T10:28:28.995Z,98628.75
2023-03-28T10:31:01.455Z,98622.47
2023-03-28T10:33:42.817Z,98619.22
2023-03-28T10:36:42.899Z,98631.53
2023-03-28T10:39:24.807Z,98626.94
2023-03-28T10:42:11.815Z,98619.56
2023-03-28T10:45:02.735Z,98626.69
2023-03-28T10:47:34.513Z,98611.94
2023-03-28T10:50:19.901Z,98617.50
2023-03-28T10:53:18.470Z,98619.63
2023-03-28T10:56:34.361Z,98622.53
2023-03-28T10:59:25.417Z,98620.63
2023-03-28T11:02:31.799Z,98615.69
2023-03-28T11:05:52.100Z,98614.25
2023-03-28T11:08:44.868Z,98616.09
2023-03-28T11:11:54.109Z,98609.13
2023-03-28T11:14:49.999Z,98609.44
2023-03-28T11:17:55.864Z,98599.41
2023-03-28T11:20:38.906Z,98590.34
2023-03-28T11:23:50.389Z,98591.91
2023-03-28T11:27:22.430Z,98589.16
2023-03-28T11:30:24.045Z,98586.72
2023-03-28T11:33:29.158Z,98580.66
2023-03-28T11:36:14.523Z,98574.66
2023-03-28T11:38:49.499Z,98579.06
2023-03-28T11:41:26.968Z,98565.94
2023-03-28T11:44:27.746Z,98562.50
2023-03-28T11:47:04.512Z,98552.75
2023-03-28T11:49:50.581Z,98545.38
2023-03-28T11:53:01.845Z,98531.94
2023-03-28T11:55:46.499Z,98544.00
2023-03-28T11:58:29.711Z,98531.13
2023-03-28T12:00:57.143Z,98545.69
2023-03-28T12:04:07.669Z,98537.00
2023-03-28T12:06:52.244Z,98535.44
2023-03-28T12:09:33.291Z,98518.91
2023-03-28T12:12:11.753Z,98519.44
2023-03-28T12:15:05.303Z,98523.50
2023-03-28T12:17:56.737Z,98520.84
2023-03-28T12:20:32.965Z,98522.78
2023-03-28T12:23:11.722Z,98522.16
2023-03-28T12:26:05.186Z,98513.09
2023-03-28T12:28:49.596Z,98508.31
2023-03-28T12:31:31.422Z,98510.09
2023-03-28T12:34:17.584Z,98504.84
2023-03-28T12:37:21.460Z,98500.22
2023-03-28T12:40:23.964Z,98492.78
2023-03-28T12:42:57.827Z,98484.31
2023-03-28T12:45:31.472Z,98484.56
2023-03-28T12:48:06.467Z,98481.28
2023-03-28T12:50:55.692Z,98477.78
2023-03-28T12:53:24.257Z,98479.09
2023-03-28T12:55:51.981Z,98471.91
2023-03-28T12:58:29.085Z,98473.97
2023-03-28T13:01:13.426Z,98470.16
2023-03-28T13:04:14.059Z,98471.91
2023-03-28T13:07:10.305Z,98469.31
2023-03-28T13:10:14.581Z,98459.88
2023-03-28T13:13:00.283Z,98464.22
2023-03-28T13:15:31.012Z,98456.44
2023-03-28T13:18:17.111Z,98454.69
2023-03-28T13:20:45.972Z,98448.56
2023-03-28T13:23:15.291Z,98455.66
2023-03-28T13:25:44.058Z,98458.25
2023-03-28T13:28:11.385Z,98459.50
2023-03-28T13:30:43.366Z,98455.72
2023-03-28T13:33:28.769Z,98451.00
2023-03-28T13:35:59.140Z,98438.03
2023-03-28T13:38:26.935Z,98441.56
2023-03-28T13:40:57.050Z,98434.78
2023-03-28T13:43:33.474Z,98424.53
2023-03-28T13:46:06.680Z,98409.88
2023-03-28T13:48:52.603Z,98403.25
2023-03-28T13:51:30.244Z,98408.00
2023-03-28T13:53:57.618Z,98409.84
2023-03-28T13:56:31.388Z,98400.50
2023-03-28T13:58:59.038Z,98394.81
2023-03-28T14:01:34.494Z,98391.31
2023-03-28T14:04:01.944Z,98377.09
2023-03-28T14:06:30.465Z,98383.44
2023-03-28T14:09:02.440Z,98384.13
2023-03-28T14:11:35.783Z,98374.09
2023-03-28T14:14:25.273Z,98361.19
2023-03-28T14:16:53.409Z,98369.06
2023-03-28T14:19:23.721Z,98362.34
2023-03-28T14:21:52.566Z,98359.47
2023-03-28T14:24:26.532Z,98354.59
2023-03-28T14:27:06.551Z,98348.03
2023-03-28T14:29:33.917Z,98352.56
2023-03-28T14:32:06.228Z,98348.19
2023-03-28T14:34:35.232Z,98347.53
2023-03-28T14:37:06.244Z,98337.41
2023-03-28T14:39:35.673Z,98341.09
2023-03-28T14:42:05.387Z,98337.00
2023-03-28T14:44:37.357Z,98332.06
2023-03-28T14:47:05.233Z,98332.66
2023-03-28T14:49:32.788Z,98322.19
2023-03-28T14:52:03.483Z,98322.47
2023-03-28T14:54:38.742Z,98315.28
2023-03-28T14:57:06.901Z,98320.00
2023-03-28T14:59:41.333Z,98317.59
2023-03-28T15:02:21.232Z,98310.81
2023-03-28T15:04:49.565Z,98301.00
2023-03-28T15:07:26.458Z,98302.78
2023-03-28T15:10:07.160Z,98298.53
2023-03-28T15:12:55.595Z,98296.03
2023-03-28T15:15:28.410Z,98284.81
2023-03-28T15:17:58.392Z,98289.00
2023-03-28T15:20:31.838Z,98275.66
2023-03-28T15:23:02.187Z,98275.66
2023-03-28T15:25:31.377Z,98265.75
2023-03-28T15:28:01.559Z,98268.38
2023-03-28T15:30:32.734Z,98259.56
2023-03-28T15:33:05.799Z,98257.53
2023-03-28T15:35:39.843Z,98260.69
2023-03-28T15:38:14.932Z,98245.22
2023-03-28T15:40:44.492Z,98253.09
2023-03-28T15:43:27.149Z,98250.66
2023-03-28T15:45:58.754Z,98239.09
2023-03-28T15:48:27.071Z,98234.19
2023-03-28T15:50:54.759Z,98237.06
2023-03-28T15:53:26.585Z,98233.38
2023-03-28T15:55:54.485Z,98216.38
2023-03-28T15:58:23.231Z,98217.41
2023-03-28T16:00:53.032Z,98218.81
2023-03-28T16:03:20.457Z,98221.38
2023-03-28T16:05:52.103Z,98219.25
2023-03-28T16:08:23.719Z,98217.38
2023-03-28T16:10:51.119Z,98213.59
2023-03-28T16:13:47.738Z,98222.19
2023-03-28T16:16:45.303Z,98214.78
2023-03-28T16:19:26.489Z,98218.81
2023-03-28T16:21:54.281Z,98214.44
2023-03-28T16:24:21.703Z,98216.59
2023-03-28T16:26:49.604Z,98207.97
2023-03-28T16:29:17.013Z,98208.94
2023-03-28T16:31:44.556Z,98201.13
2023-03-28T16:34:12.025Z,98204.84
2023-03-28T16:36:39.453Z,98190.31
2023-03-28T16:39:07.922Z,98189.53
2023-03-28T16:41:35.711Z,98188.56
2023-03-28T16:44:04.151Z,98187.41
2023-03-28T16:46:31.861Z,98187.44
2023-03-28T16:48:59.968Z,98181.97
2023-03-28T16:51:27.345Z,98180.66
2023-03-28T16:53:54.680Z,98175.66
2023-03-28T16:56:25.992Z,98180.38
2023-03-28T16:58:53.833Z,98169.03
2023-03-28T17:01:21.549Z,98167.38
2023-03-28T17:03:49.533Z,98165.72
2023-03-28T17:06:17.032Z,98169.25
2023-03-28T17:08:44.655Z,98157.91
2023-03-28T17:11:12.964Z,98157.41
2023-03-28T17:13:42.001Z,98152.91
2023-03-28T17:16:10.232Z,98139.19
2023-03-28T17:18:37.687Z,98135.53
2023-03-28T17:21:10.700Z,98131.84
2023-03-28T17:23:39.190Z,98128.16
2023-03-28T17:26:08.296Z,98134.19
2023-03-28T17:28:39.073Z,98129.69
2023-03-28T17:31:08.356Z,98125.78
2023-03-28T17:33:36.175Z,98117.44
2023-03-28T17:36:21.910Z,98106.41
2023-03-28T17:38:51.383Z,98105.91
2023-03-28T17:41:19.684Z,98104.56
2023-03-28T17:43:47.304Z,98103.06
2023-03-28T17:46:15.005Z,98105.91
2023-03-28T17:48:42.885Z,98103.56
2023-03-28T17:51:11.233Z,98096.72
2023-03-28T17:53:39.471Z,98094.03
2023-03-28T17:56:07.147Z,98095.03
2023-03-28T17:58:34.679Z,98088.84
2023-03-28T18:01:02.070Z,98089.00
2023-03-28T18:03:29.506Z,98088.34
2023-03-28T18:06:09.803Z,98089.53
2023-03-28T18:08:37.183Z,98088.34
2023-03-28T18:11:07.333Z,98084.03
2023-03-28T18:13:36.013Z,98079.00
2023-03-28T18:16:05.103Z,98081.16
2023-03-28T18:18:33.211Z,98075.31
2023-03-28T18:21:00.940Z,98079.16
2023-03-28T18:23:28.303Z,98074.13
2023-03-28T18:25:55.630Z,98068.97
2023-03-28T18:28:26.165Z,98067.94
2023-03-28T18:30:54.088Z,98067.94
2023-03-28T18:33:22.170Z,98066.28
2023-03-28T18:35:49.544Z,98070.31
2023-03-28T18:38:17.719Z,98057.75
2023-03-28T18:40:45.394Z,98061.56
2023-03-28T18:43:12.720Z,98060.38
2023-03-28T18:45:40.286Z,98066.09
2023-03-28T18:48:08.910Z,98065.22
2023-03-28T18:50:38.681Z,98057.41
2023-03-28T18:53:06.017Z,98064.75
2023-03-28T18:55:33.393Z,98056.88
2023-03-28T18:58:02.272Z,98068.03
2023-03-28T19:00:29.908Z,98063.88
2023-03-28T19:02:57.371Z,98054.34
2023-03-28T19:05:24.937Z,98063.34
2023-03-28T19:07:52.252Z,98061.69
2023-03-28T19:10:19.626Z,98076.38
2023-03-28T19:12:47.135Z,98072.88
2023-03-28T19:15:14.791Z,98072.22
2023-03-28T19:17:42.783Z,98075.03
2023-03-28T19:20:13.572Z,98074.88
2023-03-28T19:22:41.479Z,98080.22
2023-03-28T19:25:09.595Z,98083.88
2023-03-28T19:27:37.701Z,98088.38
2023-03-28T19:30:06.418Z,98081.53
2023-03-28T19:32:33.919Z,98084.38
2023-03-28T19:35:01.369Z,98094.19
2023-03-28T19:37:28.855Z,98086.38
2023-03-28T19:39:59.008Z,98088.19
2023-03-28T19:42:26.386Z,98088.34
2023-03-28T19:44:53.749Z,98084.00
2023-03-28T19:47:21.117Z,98072.81
2023-03-28T19:49:49.203Z,98072.97
2023-03-28T19:52:16.598Z,98070.28
2023-03-28T19:54:43.973Z,98061.63
2023-03-28T19:57:11.367Z,98056.94
2023-03-28T19:59:38.762Z,98064.28
2023-03-28T20:02:06.252Z,98063.63
2023-03-28T20:04:33.675Z,98068.28
2023-03-28T20:07:01.312Z,98057.94
2023-03-28T20:09:28.623Z,98067.75
2023-03-28T20:11:56.200Z,98051.91
2023-03-28T20:14:23.591Z,98058.41
2023-03-28T20:16:51.002Z,98056.91
2023-03-28T20:19:18.374Z,98054.22
2023-03-28T20:21:46.421Z,98044.22
2023-03-28T20:24:14.291Z,98046.22
2023-03-28T20:26:41.786Z,98049.19
2023-03-28T20:29:13.639Z,98042.06
2023-03-28T20:31:41.054Z,98052.88
2023-03-28T20:34:08.477Z,98055.84
2023-03-28T20:36:36.296Z,98060.53
2023-03-28T20:39:04.726Z,98067.41
2023-03-28T20:41:32.041Z,98062.91
2023-03-28T20:44:03.450Z,98065.75
2023-03-28T20:46:36.708Z,98067.09
2023-03-28T20:49:06.338Z,98069.94
2023-03-28T20:51:38.289Z,98069.41
2023-03-28T20:54:06.524Z,98060.25
2023-03-28T20:56:33.863Z,97996.03
2023-03-28T20:59:01.259Z,97965.06
2023-03-28T21:01:29.747Z,97977.75
2023-03-28T21:03:59.714Z,97990.31
2023-03-28T21:06:29.724Z,97991.66
2023-03-28T21:09:01.702Z,98006.66
2023-03-28T21:11:31.282Z,98023.69
2023-03-28T21:13:59.769Z,98034.66
2023-03-28T21:16:28.683Z,98033.16
2023-03-28T21:18:56.431Z,98018.44
2023-03-28T21:21:24.190Z,98023.13
2023-03-28T21:23:53.105Z,98021.13
2023-03-28T21:26:22.646Z,98021.13
2023-03-28T21:28:52.378Z,98022.78
2023-03-28T21:31:25.467Z,97986.13
2023-03-28T21:33:56.703Z,97990.31
2023-03-28T21:36:25.465Z,98017.84
2023-03-28T21:38:53.084Z,98033.00
2023-03-28T21:41:20.657Z,98035.84
2023-03-28T21:43:48.124Z,98029.81
2023-03-28T21:46:18.234Z,97997.81
2023-03-28T21:48:47.745Z,97987.81
2023-03-28T21:51:16.945Z,97981.66
2023-03-28T21:53:45.721Z,97956.63
2023-03-28T21:56:14.878Z,97967.13
2023-03-28T21:58:42.490Z,97979.50
2023-03-28T22:01:13.319Z,97993.66
2023-03-28T22:03:40.873Z,98011.00
2023-03-28T22:06:08.533Z,98015.78
2023-03-28T22:08:35.979Z,98017.78
2023-03-28T22:11:10.796Z,98027.28
2023-03-28T22:13:38.772Z,98032.63
2023-03-28T22:16:09.214Z,98029.44
2023-03-28T22:18:36.725Z,98028.75
2023-03-28T22:21:04.957Z,98030.75
2023-03-28T22:23:32.357Z,98036.22
2023-03-28T22:25:59.791Z,98039.09
2023-03-28T22:28:27.124Z,98057.09
2023-03-28T22:30:56.172Z,98062.72
2023-03-28T22:33:25.078Z,98071.88
2023-03-28T22:35:53.134Z,98066.69
2023-03-28T22:38:20.601Z,98060.84
2023-03-28T22:40:47.996Z,98072.28
2023-03-28T22:43:15.998Z,98075.75
2023-03-28T22:45:43.428Z,98072.09
2023-03-28T22:48:14.237Z,98084.38
2023-03-28T22:50:44.115Z,98065.53
2023-03-28T22:53:12.350Z,98070.03
2023-03-28T22:55:41.639Z,98061.88
2023-03-28T22:58:09.003Z,98067.22
2023-03-28T23:00:36.347Z,98067.22
2023-03-28T23:03:04.036Z,98073.69
2023-03-28T23:05:31.878Z,98059.91
2023-03-28T23:08:00.104Z,98062.41
2023-03-28T23:10:27.695Z,98067.06
2023-03-28T23:12:55.114Z,98059.75
2023-03-28T23:15:22.622Z,98059.75
2023-03-28T23:17:50.297Z,98052.09
2023-03-28T23:20:19.077Z,98041.41
2023-03-28T23:22:48.530Z,98026.41
2023-03-28T23:25:18.419Z,98019.59
2023-03-28T23:27:46.617Z,98010.75
2023-03-28T23:30:14.929Z,97995.06
2023-03-28T23:32:42.433Z,97984.41
2023-03-28T23:35:10.511Z,97971.78
2023-03-28T23:37:38.309Z,97959.81
2023-03-28T23:40:11.488Z,97961.81
2023-03-28T23:42:38.856Z,97967.47
2023-03-28T23:45:06.783Z,97964.09
2023-03-28T23:47:34.173Z,97956.41
2023-03-28T23:50:01.555Z,97958.41
2023-03-28T23:52:28.963Z,97982.38
2023-03-28T23:54:56.565Z,97957.41
2023-03-28T23:57:25.161Z,97956.28
2023-03-28T23:59:52.759Z,97941.94
